sensor_id;sensor_type;location;lat;lon;timestamp;pressure;altitude;pressure_sealevel;temperature;humidity
73651;BME280;61944;52.538;6.108;2023-03-13T00:01:30;100083.44;;;8.61;100.00
73651;BME280;61944;52.538;6.108;2023-03-13T00:03:55;100068.28;;;8.58;100.00
73651;BME280;61944;52.538;6.108;2023-03-13T00:06:22;100065.91;;;8.60;100.00
73651;BME280;61944;52.538;6.108;2023-03-13T00:08:48;100065.06;;;8.56;100.00
73651;BME280;61944;52.538;6.108;2023-03-13T00:11:14;100054.66;;;8.53;100.00
73651;BME280;61944;52.538;6.108;2023-03-13T00:13:40;100050.69;;;8.54;100.00
73651;BME280;61944;52.538;6.108;2023-03-13T00:16:11;100037.91;;;8.53;100.00
73651;BME280;61944;52.538;6.108;2023-03-13T00:18:37;100043.53;;;8.57;100.00
73651;BME280;61944;52.538;6.108;2023-03-13T00:21:07;100032.38;;;8.57;100.00
73651;BME280;61944;52.538;6.108;2023-03-13T00:23:34;100027.53;;;8.50;100.00
73651;BME280;61944;52.538;6.108;2023-03-13T00:26:09;100010.31;;;8.41;100.00
73651;BME280;61944;52.538;6.108;2023-03-13T00:28:36;100012.34;;;8.47;100.00
73651;BME280;61944;52.538;6.108;2023-03-13T00:31:13;100013.19;;;8.48;100.00
73651;BME280;61944;52.538;6.108;2023-03-13T00:33:41;99985.25;;;8.44;100.00
73651;BME280;61944;52.538;6.108;2023-03-13T00:36:12;99986.13;;;8.52;100.00
73651;BME280;61944;52.538;6.108;2023-03-13T00:38:37;99978.47;;;8.45;100.00
73651;BME280;61944;52.538;6.108;2023-03-13T00:41:14;99974.13;;;8.48;100.00
73651;BME280;61944;52.538;6.108;2023-03-13T00:43:41;99963.78;;;8.48;100.00
73651;BME280;61944;52.538;6.108;2023-03-13T00:46:07;99967.31;;;8.42;100.00
73651;BME280;61944;52.538;6.108;2023-03-13T00:48:33;99956.88;;;8.39;100.00
73651;BME280;61944;52.538;6.108;2023-03-13T00:50:59;99952.50;;;8.38;100.00
73651;BME280;61944;52.538;6.108;2023-03-13T00:53:24;99940.56;;;8.37;100.00
73651;BME280;61944;52.538;6.108;2023-03-13T00:56:02;99932.56;;;8.35;100.00
73651;BME280;61944;52.538;6.108;2023-03-13T00:58:29;99922.97;;;8.29;100.00
73651;BME280;61944;52.538;6.108;2023-03-13T01:00:55;99923.00;;;8.33;100.00
73651;BME280;61944;52.538;6.108;2023-03-13T01:03:23;99915.75;;;8.28;100.00
73651;BME280;61944;52.538;6.108;2023-03-13T01:05:56;99909.44;;;8.31;100.00
73651;BME280;61944;52.538;6.108;2023-03-13T01:08:22;99891.41;;;8.22;100.00
73651;BME280;61944;52.538;6.108;2023-03-13T01:10:48;99889.47;;;8.22;100.00
73651;BME280;61944;52.538;6.108;2023-03-13T01:13:13;99878.31;;;8.22;100.00
73651;BME280;61944;52.538;6.108;2023-03-13T01:15:39;99879.09;;;8.26;100.00
73651;BME280;61944;52.538;6.108;2023-03-13T01:18:04;99868.69;;;8.16;100.00
73651;BME280;61944;52.538;6.108;2023-03-13T01:20:29;99865.13;;;8.19;100.00
73651;BME280;61944;52.538;6.108;2023-03-13T01:22:55;99863.47;;;8.11;100.00
73651;BME280;61944;52.538;6.108;2023-03-13T01:25:20;99853.16;;;8.15;100.00
73651;BME280;61944;52.538;6.108;2023-03-13T01:27:45;99836.00;;;8.13;100.00
73651;BME280;61944;52.538;6.108;2023-03-13T01:30:11;99839.59;;;8.13;100.00
73651;BME280;61944;52.538;6.108;2023-03-13T01:32:36;99824.84;;;8.13;100.00
73651;BME280;61944;52.538;6.108;2023-03-13T01:35:02;99820.06;;;8.13;100.00
73651;BME280;61944;52.538;6.108;2023-03-13T01:37:27;99824.84;;;8.13;100.00
73651;BME280;61944;52.538;6.108;2023-03-13T01:39:53;99809.31;;;8.08;100.00
73651;BME280;61944;52.538;6.108;2023-03-13T01:42:18;99804.50;;;8.05;100.00
73651;BME280;61944;52.538;6.108;2023-03-13T01:44:52;99798.47;;;7.96;100.00
73651;BME280;61944;52.538;6.108;2023-03-13T01:47:18;99788.19;;;8.07;100.00
73651;BME280;61944;52.538;6.108;2023-03-13T01:49:43;99770.22;;;7.98;100.00
73651;BME280;61944;52.538;6.108;2023-03-13T01:52:23;99777.44;;;8.06;100.00
73651;BME280;61944;52.538;6.108;2023-03-13T01:55:01;99774.66;;;8.06;100.00
73651;BME280;61944;52.538;6.108;2023-03-13T01:57:34;99750.75;;;8.05;100.00
73651;BME280;61944;52.538;6.108;2023-03-13T02:02:32;99728.44;;;8.05;100.00
73651;BME280;61944;52.538;6.108;2023-03-13T02:05:00;99722.47;;;7.99;100.00
73651;BME280;61944;52.538;6.108;2023-03-13T02:07:30;99717.34;;;8.08;100.00
73651;BME280;61944;52.538;6.108;2023-03-13T02:09:57;99712.13;;;8.07;100.00
73651;BME280;61944;52.538;6.108;2023-03-13T02:12:30;99702.59;;;8.08;100.00
73651;BME280;61944;52.538;6.108;2023-03-13T02:14:58;99690.25;;;8.09;100.00
73651;BME280;61944;52.538;6.108;2023-03-13T02:17:25;99685.47;;;8.06;100.00
73651;BME280;61944;52.538;6.108;2023-03-13T02:19:51;99674.31;;;8.06;100.00
73651;BME280;61944;52.538;6.108;2023-03-13T02:22:24;99683.50;;;8.10;100.00
73651;BME280;61944;52.538;6.108;2023-03-13T02:25:17;99652.09;;;8.20;100.00
73651;BME280;61944;52.538;6.108;2023-03-13T02:27:46;99661.59;;;8.15;100.00
73651;BME280;61944;52.538;6.108;2023-03-13T02:30:13;99652.09;;;8.20;100.00
73651;BME280;61944;52.538;6.108;2023-03-13T02:32:39;99649.31;;;8.27;100.00
73651;BME280;61944;52.538;6.108;2023-03-13T02:35:08;99636.19;;;8.31;100.00
73651;BME280;61944;52.538;6.108;2023-03-13T02:37:35;99630.63;;;8.31;100.00
73651;BME280;61944;52.538;6.108;2023-03-13T02:40:04;99632.31;;;8.43;100.00
73651;BME280;61944;52.538;6.108;2023-03-13T02:42:32;99622.69;;;8.37;100.00
73651;BME280;61944;52.538;6.108;2023-03-13T02:44:57;99617.94;;;8.45;100.00
73651;BME280;61944;52.538;6.108;2023-03-13T02:47:24;99610.78;;;8.44;100.00
73651;BME280;61944;52.538;6.108;2023-03-13T02:49:49;99612.41;;;8.59;100.00
73651;BME280;61944;52.538;6.108;2023-03-13T02:52:34;99602.41;;;8.47;100.00
73651;BME280;61944;52.538;6.108;2023-03-13T02:55:13;99584.50;;;8.55;100.00
73651;BME280;61944;52.538;6.108;2023-03-13T02:57:42;99587.69;;;8.68;100.00
73651;BME280;61944;52.538;6.108;2023-03-13T03:00:09;99580.53;;;8.60;100.00
73651;BME280;61944;52.538;6.108;2023-03-13T03:02:37;99568.56;;;8.70;100.00
73651;BME280;61944;52.538;6.108;2023-03-13T03:05:04;99565.03;;;8.77;100.00
73651;BME280;61944;52.538;6.108;2023-03-13T03:07:30;99553.44;;;8.93;100.00
73651;BME280;61944;52.538;6.108;2023-03-13T03:09:55;99558.25;;;8.82;100.00
73651;BME280;61944;52.538;6.108;2023-03-13T03:12:21;99563.00;;;8.99;100.00
73651;BME280;61944;52.538;6.108;2023-03-13T03:14:46;99549.47;;;8.94;100.00
73651;BME280;61944;52.538;6.108;2023-03-13T03:17:12;99559.81;;;8.97;100.00
73651;BME280;61944;52.538;6.108;2023-03-13T03:19:37;99547.06;;;8.92;100.00
73651;BME280;61944;52.538;6.108;2023-03-13T03:22:02;99545.47;;;9.09;100.00
73651;BME280;61944;52.538;6.108;2023-03-13T03:24:28;99541.88;;;9.05;100.00
73651;BME280;61944;52.538;6.108;2023-03-13T03:26:53;99540.66;;;9.06;100.00
73651;BME280;61944;52.538;6.108;2023-03-13T03:29:18;99539.06;;;9.27;100.00
73651;BME280;61944;52.538;6.108;2023-03-13T03:31:44;99539.91;;;8.99;100.00
73651;BME280;61944;52.538;6.108;2023-03-13T03:34:09;99545.44;;;9.31;100.00
73651;BME280;61944;52.538;6.108;2023-03-13T03:36:35;99547.06;;;9.14;100.00
73651;BME280;61944;52.538;6.108;2023-03-13T03:39:00;99541.06;;;9.30;100.00
73651;BME280;61944;52.538;6.108;2023-03-13T03:41:25;99531.06;;;9.32;100.00
73651;BME280;61944;52.538;6.108;2023-03-13T03:43:51;99539.03;;;9.23;100.00
73651;BME280;61944;52.538;6.108;2023-03-13T03:46:16;99533.47;;;9.27;100.00
73651;BME280;61944;52.538;6.108;2023-03-13T03:48:42;99531.50;;;9.24;100.00
73651;BME280;61944;52.538;6.108;2023-03-13T03:51:07;99538.25;;;9.30;100.00
73651;BME280;61944;52.538;6.108;2023-03-13T03:53:33;99528.28;;;9.36;100.00
73651;BME280;61944;52.538;6.108;2023-03-13T03:56:00;99530.25;;;9.43;100.00
73651;BME280;61944;52.538;6.108;2023-03-13T03:58:25;99529.44;;;9.49;100.00
73651;BME280;61944;52.538;6.108;2023-03-13T04:00:51;99545.75;;;9.54;100.00
73651;BME280;61944;52.538;6.108;2023-03-13T04:03:16;99535.41;;;9.48;100.00
73651;BME280;61944;52.538;6.108;2023-03-13T04:05:42;99530.22;;;9.53;100.00
73651;BME280;61944;52.538;6.108;2023-03-13T04:08:08;99530.63;;;9.52;100.00
73651;BME280;61944;52.538;6.108;2023-03-13T04:10:34;99533.31;;;9.77;100.00
73651;BME280;61944;52.538;6.108;2023-03-13T04:12:59;99528.59;;;9.60;100.00
73651;BME280;61944;52.538;6.108;2023-03-13T04:15:25;99521.38;;;9.69;100.00
73651;BME280;61944;52.538;6.108;2023-03-13T04:17:50;99510.28;;;9.55;100.00
73651;BME280;61944;52.538;6.108;2023-03-13T04:20:16;99512.25;;;9.62;100.00
73651;BME280;61944;52.538;6.108;2023-03-13T04:22:42;99504.53;;;9.87;100.00
73651;BME280;61944;52.538;6.108;2023-03-13T04:25:08;99493.38;;;9.80;100.00
73651;BME280;61944;52.538;6.108;2023-03-13T04:27:33;99493.44;;;9.69;100.00
73651;BME280;61944;52.538;6.108;2023-03-13T04:29:59;99504.94;;;9.89;100.00
73651;BME280;61944;52.538;6.108;2023-03-13T04:32:25;99486.88;;;10.01;100.00
73651;BME280;61944;52.538;6.108;2023-03-13T04:34:50;99487.81;;;9.76;100.00
73651;BME280;61944;52.538;6.108;2023-03-13T04:37:16;99469.44;;;9.83;100.00
73651;BME280;61944;52.538;6.108;2023-03-13T04:39:42;99482.03;;;10.12;100.00
73651;BME280;61944;52.538;6.108;2023-03-13T04:42:09;99488.81;;;10.15;100.00
73651;BME280;61944;52.538;6.108;2023-03-13T04:44:35;99471.59;;;10.20;100.00
73651;BME280;61944;52.538;6.108;2023-03-13T04:47:00;99469.63;;;10.13;100.00
73651;BME280;61944;52.538;6.108;2023-03-13T04:49:25;99466.38;;;10.22;100.00
73651;BME280;61944;52.538;6.108;2023-03-13T04:51:51;99464.34;;;10.26;100.00
73651;BME280;61944;52.538;6.108;2023-03-13T04:54:16;99456.34;;;10.28;100.00
73651;BME280;61944;52.538;6.108;2023-03-13T04:56:42;99449.97;;;10.24;100.00
73651;BME280;61944;52.538;6.108;2023-03-13T04:59:08;99445.97;;;10.29;100.00
73651;BME280;61944;52.538;6.108;2023-03-13T05:01:33;99445.22;;;10.21;100.00
73651;BME280;61944;52.538;6.108;2023-03-13T05:03:59;99437.56;;;10.32;100.00
73651;BME280;61944;52.538;6.108;2023-03-13T05:06:25;99437.22;;;10.23;100.00
73651;BME280;61944;52.538;6.108;2023-03-13T05:08:50;99433.19;;;10.28;100.00
73651;BME280;61944;52.538;6.108;2023-03-13T05:11:15;99433.44;;;10.51;100.00
73651;BME280;61944;52.538;6.108;2023-03-13T05:13:41;99430.69;;;10.48;100.00
73651;BME280;61944;52.538;6.108;2023-03-13T05:16:06;99436.31;;;10.41;100.00
73651;BME280;61944;52.538;6.108;2023-03-13T05:18:32;99417.78;;;10.57;100.00
73651;BME280;61944;52.538;6.108;2023-03-13T05:20:57;99412.75;;;10.42;100.00
73651;BME280;61944;52.538;6.108;2023-03-13T05:23:23;99423.19;;;10.34;100.00
73651;BME280;61944;52.538;6.108;2023-03-13T05:25:48;99426.13;;;10.65;100.00
73651;BME280;61944;52.538;6.108;2023-03-13T05:28:13;99410.56;;;10.60;100.00
73651;BME280;61944;52.538;6.108;2023-03-13T05:30:39;99411.31;;;10.64;100.00
73651;BME280;61944;52.538;6.108;2023-03-13T05:33:04;99415.34;;;10.63;100.00
73651;BME280;61944;52.538;6.108;2023-03-13T05:35:30;99418.47;;;10.69;100.00
73651;BME280;61944;52.538;6.108;2023-03-13T05:37:55;99408.91;;;10.66;100.00
73651;BME280;61944;52.538;6.108;2023-03-13T05:40:20;99416.22;;;10.56;100.00
73651;BME280;61944;52.538;6.108;2023-03-13T05:42:46;99408.69;;;10.50;100.00
73651;BME280;61944;52.538;6.108;2023-03-13T05:45:11;99414.38;;;10.81;100.00
73651;BME280;61944;52.538;6.108;2023-03-13T05:47:37;99407.38;;;10.58;100.00
73651;BME280;61944;52.538;6.108;2023-03-13T05:50:05;99418.38;;;10.80;100.00
73651;BME280;61944;52.538;6.108;2023-03-13T05:52:31;99416.72;;;10.86;100.00
73651;BME280;61944;52.538;6.108;2023-03-13T05:54:56;99408.81;;;10.77;100.00
73651;BME280;61944;52.538;6.108;2023-03-13T05:57:22;99401.91;;;10.85;100.00
73651;BME280;61944;52.538;6.108;2023-03-13T05:59:47;99403.09;;;10.88;100.00
73651;BME280;61944;52.538;6.108;2023-03-13T06:02:13;99414.75;;;10.83;100.00
73651;BME280;61944;52.538;6.108;2023-03-13T06:04:38;99390.16;;;11.01;100.00
73651;BME280;61944;52.538;6.108;2023-03-13T06:07:04;99408.72;;;11.22;100.00
73651;BME280;61944;52.538;6.108;2023-03-13T06:09:29;99402.03;;;11.12;100.00
73651;BME280;61944;52.538;6.108;2023-03-13T06:11:54;99391.72;;;11.06;100.00
73651;BME280;61944;52.538;6.108;2023-03-13T06:14:20;99387.00;;;10.99;100.00
73651;BME280;61944;52.538;6.108;2023-03-13T06:16:45;99389.44;;;10.93;100.00
73651;BME280;61944;52.538;6.108;2023-03-13T06:19:11;99398.72;;;11.21;100.00
73651;BME280;61944;52.538;6.108;2023-03-13T06:21:37;99374.75;;;10.86;100.00
73651;BME280;61944;52.538;6.108;2023-03-13T06:24:02;99375.03;;;10.95;100.00
73651;BME280;61944;52.538;6.108;2023-03-13T06:26:28;99367.72;;;11.05;100.00
73651;BME280;61944;52.538;6.108;2023-03-13T06:28:53;99372.34;;;11.18;100.00
73651;BME280;61944;52.538;6.108;2023-03-13T06:31:19;99368.72;;;11.22;100.00
73651;BME280;61944;52.538;6.108;2023-03-13T06:33:44;99375.25;;;11.11;100.00
73651;BME280;61944;52.538;6.108;2023-03-13T06:36:10;99380.97;;;11.35;100.00
73651;BME280;61944;52.538;6.108;2023-03-13T06:38:35;99371.00;;;11.30;100.00
73651;BME280;61944;52.538;6.108;2023-03-13T06:41:00;99363.50;;;11.24;100.00
73651;BME280;61944;52.538;6.108;2023-03-13T06:43:26;99363.06;;;11.25;100.00
73651;BME280;61944;52.538;6.108;2023-03-13T06:45:52;99359.59;;;11.45;100.00
73651;BME280;61944;52.538;6.108;2023-03-13T06:48:17;99379.72;;;11.36;100.00
73651;BME280;61944;52.538;6.108;2023-03-13T06:50:43;99364.41;;;11.44;100.00
73651;BME280;61944;52.538;6.108;2023-03-13T06:53:19;99360.97;;;11.33;100.00
73651;BME280;61944;52.538;6.108;2023-03-13T06:55:45;99359.25;;;11.43;100.00
73651;BME280;61944;52.538;6.108;2023-03-13T06:58:11;99354.84;;;11.42;100.00
73651;BME280;61944;52.538;6.108;2023-03-13T07:00:36;99366.25;;;11.27;100.00
73651;BME280;61944;52.538;6.108;2023-03-13T07:03:04;99377.03;;;11.59;100.00
73651;BME280;61944;52.538;6.108;2023-03-13T07:05:29;99360.22;;;11.59;100.00
73651;BME280;61944;52.538;6.108;2023-03-13T07:07:55;99360.09;;;12.21;100.00
73651;BME280;61944;52.538;6.108;2023-03-13T07:10:20;99375.25;;;11.73;100.00
73651;BME280;61944;52.538;6.108;2023-03-13T07:12:45;99348.47;;;11.68;100.00
73651;BME280;61944;52.538;6.108;2023-03-13T07:15:11;99366.28;;;11.54;100.00
73651;BME280;61944;52.538;6.108;2023-03-13T07:17:36;99374.16;;;11.63;100.00
73651;BME280;61944;52.538;6.108;2023-03-13T07:20:03;99376.50;;;11.68;100.00
73651;BME280;61944;52.538;6.108;2023-03-13T07:22:34;99369.63;;;11.73;100.00
73651;BME280;61944;52.538;6.108;2023-03-13T07:25:00;99372.44;;;11.73;100.00
73651;BME280;61944;52.538;6.108;2023-03-13T07:27:25;99367.03;;;11.86;100.00
73651;BME280;61944;52.538;6.108;2023-03-13T07:29:51;99368.50;;;11.67;100.00
73651;BME280;61944;52.538;6.108;2023-03-13T07:32:16;99366.28;;;11.82;100.00
73651;BME280;61944;52.538;6.108;2023-03-13T07:34:42;99369.25;;;11.71;100.00
73651;BME280;61944;52.538;6.108;2023-03-13T07:37:13;99368.50;;;11.67;100.00
73651;BME280;61944;52.538;6.108;2023-03-13T07:39:39;99361.47;;;11.55;100.00
73651;BME280;61944;52.538;6.108;2023-03-13T07:42:06;99372.06;;;11.71;100.00
73651;BME280;61944;52.538;6.108;2023-03-13T07:44:31;99382.94;;;11.65;100.00
73651;BME280;61944;52.538;6.108;2023-03-13T07:47:00;99385.16;;;11.50;100.00
73651;BME280;61944;52.538;6.108;2023-03-13T07:49:25;99382.16;;;11.65;100.00
73651;BME280;61944;52.538;6.108;2023-03-13T07:51:51;99390.09;;;11.70;100.00
73651;BME280;61944;52.538;6.108;2023-03-13T07:54:16;99399.88;;;11.58;100.00
73651;BME280;61944;52.538;6.108;2023-03-13T07:56:42;99380.06;;;11.42;100.00
73651;BME280;61944;52.538;6.108;2023-03-13T07:59:07;99384.88;;;11.41;100.00
73651;BME280;61944;52.538;6.108;2023-03-13T08:01:33;99372.06;;;11.40;100.00
73651;BME280;61944;52.538;6.108;2023-03-13T08:03:58;99389.94;;;11.53;100.00
73651;BME280;61944;52.538;6.108;2023-03-13T08:06:30;99380.84;;;11.42;100.00
73651;BME280;61944;52.538;6.108;2023-03-13T08:08:56;99380.78;;;11.49;100.00
73651;BME280;61944;52.538;6.108;2023-03-13T08:11:24;99381.03;;;11.58;100.00
73651;BME280;61944;52.538;6.108;2023-03-13T08:13:51;99371.13;;;11.50;100.00
73651;BME280;61944;52.538;6.108;2023-03-13T08:16:19;99385.16;;;11.50;100.00
73651;BME280;61944;52.538;6.108;2023-03-13T08:18:46;99383.84;;;11.58;100.00
73651;BME280;61944;52.538;6.108;2023-03-13T08:21:18;99395.06;;;11.58;100.00
73651;BME280;61944;52.538;6.108;2023-03-13T08:23:45;99377.97;;;11.49;100.00
73651;BME280;61944;52.538;6.108;2023-03-13T08:26:15;99383.84;;;11.58;100.00
73651;BME280;61944;52.538;6.108;2023-03-13T08:28:41;99388.91;;;11.67;100.00
73651;BME280;61944;52.538;6.108;2023-03-13T08:31:18;99399.75;;;11.65;100.00
73651;BME280;61944;52.538;6.108;2023-03-13T08:33:45;99372.44;;;11.73;100.00
73651;BME280;61944;52.538;6.108;2023-03-13T08:36:20;99387.34;;;11.66;100.00
73651;BME280;61944;52.538;6.108;2023-03-13T08:38:47;99378.41;;;11.75;100.00
73651;BME280;61944;52.538;6.108;2023-03-13T08:41:22;99353.81;;;11.86;100.00
73651;BME280;61944;52.538;6.108;2023-03-13T08:43:47;99340.09;;;11.95;100.00
73651;BME280;61944;52.538;6.108;2023-03-13T08:46:14;99331.31;;;11.93;100.00
73651;BME280;61944;52.538;6.108;2023-03-13T08:48:40;99333.50;;;12.06;100.00
73651;BME280;61944;52.538;6.108;2023-03-13T08:51:09;99370.44;;;12.00;100.00
73651;BME280;61944;52.538;6.108;2023-03-13T08:53:36;99356.56;;;12.17;100.00
73651;BME280;61944;52.538;6.108;2023-03-13T08:56:02;99340.38;;;12.01;100.00
73651;BME280;61944;52.538;6.108;2023-03-13T08:58:29;99337.78;;;12.14;100.00
73651;BME280;61944;52.538;6.108;2023-03-13T09:01:02;99325.75;;;12.13;100.00
73651;BME280;61944;52.538;6.108;2023-03-13T09:03:27;99326.38;;;12.25;100.00
73651;BME280;61944;52.538;6.108;2023-03-13T09:05:58;99331.06;;;12.08;100.00
73651;BME280;61944;52.538;6.108;2023-03-13T09:08:24;99334.50;;;12.19;100.00
73651;BME280;61944;52.538;6.108;2023-03-13T09:11:01;99330.97;;;12.15;100.00
73651;BME280;61944;52.538;6.108;2023-03-13T09:13:28;99336.44;;;12.22;100.00
73651;BME280;61944;52.538;6.108;2023-03-13T09:18:24;99350.09;;;12.20;100.00
73651;BME280;61944;52.538;6.108;2023-03-13T09:20:49;99324.13;;;12.16;100.00
73651;BME280;61944;52.538;6.108;2023-03-13T09:23:17;99370.97;;;12.19;100.00
73651;BME280;61944;52.538;6.108;2023-03-13T09:25:43;99335.03;;;12.10;100.00
73651;BME280;61944;52.538;6.108;2023-03-13T09:28:08;99327.72;;;12.16;100.00
73651;BME280;61944;52.538;6.108;2023-03-13T09:30:37;99331.78;;;12.12;100.00
73651;BME280;61944;52.538;6.108;2023-03-13T09:33:02;99330.81;;;12.22;100.00
73651;BME280;61944;52.538;6.108;2023-03-13T09:35:28;99323.81;;;12.10;100.00
73651;BME280;61944;52.538;6.108;2023-03-13T09:37:53;99324.47;;;12.18;100.00
73651;BME280;61944;52.538;6.108;2023-03-13T09:40:21;99309.13;;;12.03;100.00
73651;BME280;61944;52.538;6.108;2023-03-13T09:42:56;99295.22;;;12.19;100.00
73651;BME280;61944;52.538;6.108;2023-03-13T09:45:31;99311.19;;;12.22;100.00
73651;BME280;61944;52.538;6.108;2023-03-13T09:48:06;99316.34;;;12.47;100.00
73651;BME280;61944;52.538;6.108;2023-03-13T09:50:35;99305.28;;;12.60;100.00
73651;BME280;61944;52.538;6.108;2023-03-13T09:53:14;99289.47;;;12.90;100.00
73651;BME280;61944;52.538;6.108;2023-03-13T09:55:44;99280.66;;;12.88;100.00
73651;BME280;61944;52.538;6.108;2023-03-13T09:58:16;99272.59;;;12.90;100.00
73651;BME280;61944;52.538;6.108;2023-03-13T10:00:51;99263.63;;;12.78;100.00
73651;BME280;61944;52.538;6.108;2023-03-13T10:03:39;99257.06;;;12.85;100.00
73651;BME280;61944;52.538;6.108;2023-03-13T10:06:17;99255.19;;;12.78;100.00
73651;BME280;61944;52.538;6.108;2023-03-13T10:08:43;99245.53;;;12.99;100.00
73651;BME280;61944;52.538;6.108;2023-03-13T10:11:28;99259.66;;;12.96;100.00
73651;BME280;61944;52.538;6.108;2023-03-13T10:14:21;99252.53;;;12.91;100.00
73651;BME280;61944;52.538;6.108;2023-03-13T10:17:19;99259.38;;;12.90;100.00
73651;BME280;61944;52.538;6.108;2023-03-13T10:19:51;99265.25;;;12.96;100.00
73651;BME280;61944;52.538;6.108;2023-03-13T10:22:23;99250.25;;;13.02;100.00
73651;BME280;61944;52.538;6.108;2023-03-13T10:25:02;99261.97;;;13.01;100.00
73651;BME280;61944;52.538;6.108;2023-03-13T10:27:28;99252.16;;;13.09;100.00
73651;BME280;61944;52.538;6.108;2023-03-13T10:29:54;99239.31;;;13.08;100.00
73651;BME280;61944;52.538;6.108;2023-03-13T10:32:19;99238.56;;;13.24;100.00
73651;BME280;61944;52.538;6.108;2023-03-13T10:34:49;99226.97;;;13.22;100.00
73651;BME280;61944;52.538;6.108;2023-03-13T10:37:20;99225.16;;;13.32;100.00
73651;BME280;61944;52.538;6.108;2023-03-13T10:39:46;99240.47;;;13.31;100.00
73651;BME280;61944;52.538;6.108;2023-03-13T10:42:26;99228.34;;;13.34;100.00
73651;BME280;61944;52.538;6.108;2023-03-13T10:44:57;99233.81;;;13.41;100.00
73651;BME280;61944;52.538;6.108;2023-03-13T10:47:23;99234.31;;;13.52;100.00
73651;BME280;61944;52.538;6.108;2023-03-13T10:49:51;99222.91;;;13.59;100.00
73651;BME280;61944;52.538;6.108;2023-03-13T10:52:35;99219.50;;;13.68;100.00
73651;BME280;61944;52.538;6.108;2023-03-13T10:55:08;99208.22;;;13.85;100.00
73651;BME280;61944;52.538;6.108;2023-03-13T10:57:36;99222.75;;;13.83;100.00
73651;BME280;61944;52.538;6.108;2023-03-13T11:00:40;99204.06;;;14.06;100.00
73651;BME280;61944;52.538;6.108;2023-03-13T11:03:22;99198.53;;;14.02;100.00
73651;BME280;61944;52.538;6.108;2023-03-13T11:05:57;99197.50;;;13.96;100.00
73651;BME280;61944;52.538;6.108;2023-03-13T11:08:25;99184.13;;;14.00;100.00
73651;BME280;61944;52.538;6.108;2023-03-13T11:10:57;99197.56;;;14.09;100.00
73651;BME280;61944;52.538;6.108;2023-03-13T11:13:38;99196.47;;;14.19;100.00
73651;BME280;61944;52.538;6.108;2023-03-13T11:18:40;99201.09;;;13.96;100.00
73651;BME280;61944;52.538;6.108;2023-03-13T11:21:16;99202.38;;;14.08;100.00
73651;BME280;61944;52.538;6.108;2023-03-13T11:23:57;99192.50;;;14.16;100.00
73651;BME280;61944;52.538;6.108;2023-03-13T11:26:33;99174.06;;;14.44;100.00
73651;BME280;61944;52.538;6.108;2023-03-13T11:29:13;99212.47;;;14.22;100.00
73651;BME280;61944;52.538;6.108;2023-03-13T11:31:47;99189.06;;;14.25;99.46
73651;BME280;61944;52.538;6.108;2023-03-13T11:34:33;99195.09;;;14.40;100.00
73651;BME280;61944;52.538;6.108;2023-03-13T11:37:11;99187.22;;;14.77;96.16
73651;BME280;61944;52.538;6.108;2023-03-13T11:51:00;99193.19;;;14.20;99.65
73651;BME280;61944;52.538;6.108;2023-03-13T11:56:07;99177.13;;;14.21;100.00
73651;BME280;61944;52.538;6.108;2023-03-13T12:01:39;99181.56;;;14.35;97.61
73651;BME280;61944;52.538;6.108;2023-03-13T12:04:38;99187.88;;;14.68;97.51
73651;BME280;61944;52.538;6.108;2023-03-13T12:10:00;99150.50;;;14.93;96.53
73651;BME280;61944;52.538;6.108;2023-03-13T12:14:58;99145.78;;;14.48;96.25
73651;BME280;61944;52.538;6.108;2023-03-13T12:17:32;99170.78;;;14.46;95.44
73651;BME280;61944;52.538;6.108;2023-03-13T12:25:24;99166.03;;;14.72;90.15
73651;BME280;61944;52.538;6.108;2023-03-13T12:27:52;99142.72;;;14.72;92.91
73651;BME280;61944;52.538;6.108;2023-03-13T12:30:39;99138.06;;;14.65;95.03
73651;BME280;61944;52.538;6.108;2023-03-13T12:35:46;99118.69;;;15.31;87.08
73651;BME280;61944;52.538;6.108;2023-03-13T12:38:23;99123.34;;;14.87;94.61
73651;BME280;61944;52.538;6.108;2023-03-13T12:41:07;99137.78;;;14.89;91.02
73651;BME280;61944;52.538;6.108;2023-03-13T12:43:38;99129.09;;;14.70;92.35
73651;BME280;61944;52.538;6.108;2023-03-13T12:48:57;99134.75;;;14.54;100.00
73651;BME280;61944;52.538;6.108;2023-03-13T12:55:03;99144.94;;;14.22;100.00
73651;BME280;61944;52.538;6.108;2023-03-13T12:57:56;99136.34;;;14.13;100.00
73651;BME280;61944;52.538;6.108;2023-03-13T13:00:30;99144.19;;;14.34;100.00
73651;BME280;61944;52.538;6.108;2023-03-13T13:03:31;99124.56;;;14.31;100.00
73651;BME280;61944;52.538;6.108;2023-03-13T13:06:11;99137.13;;;14.42;100.00
73651;BME280;61944;52.538;6.108;2023-03-13T13:08:40;99135.91;;;14.56;100.00
73651;BME280;61944;52.538;6.108;2023-03-13T13:11:39;99120.28;;;14.68;100.00
73651;BME280;61944;52.538;6.108;2023-03-13T13:19:44;99133.59;;;15.06;90.94
73651;BME280;61944;52.538;6.108;2023-03-13T13:30:00;99105.19;;;15.00;90.24
73651;BME280;61944;52.538;6.108;2023-03-13T13:32:39;99090.22;;;14.78;92.65
73651;BME280;61944;52.538;6.108;2023-03-13T13:37:37;99100.25;;;14.79;88.65
73651;BME280;61944;52.538;6.108;2023-03-13T13:43:00;99112.97;;;14.96;84.53
73651;BME280;61944;52.538;6.108;2023-03-13T13:45:37;99098.69;;;14.78;87.90
73651;BME280;61944;52.538;6.108;2023-03-13T13:48:25;99086.03;;;15.08;89.30
73651;BME280;61944;52.538;6.108;2023-03-13T13:53:43;99077.00;;;15.13;87.91
73651;BME280;61944;52.538;6.108;2023-03-13T13:56:48;99097.75;;;14.94;90.48
73651;BME280;61944;52.538;6.108;2023-03-13T14:01:44;99065.72;;;15.13;87.10
73651;BME280;61944;52.538;6.108;2023-03-13T14:04:14;99059.44;;;14.96;91.61
73651;BME280;61944;52.538;6.108;2023-03-13T14:06:44;99062.22;;;15.22;83.85
73651;BME280;61944;52.538;6.108;2023-03-13T14:09:41;99064.09;;;15.38;87.43
73651;BME280;61944;52.538;6.108;2023-03-13T14:15:20;99070.25;;;15.11;87.00
73651;BME280;61944;52.538;6.108;2023-03-13T14:17:54;99063.25;;;15.15;81.89